sensor_id;sensor_type;location;lat;lon;timestamp;temperature;humidity
31639;DHT22;18248;51.522;7.020;2024-03-23T00:54:11;9.60;99.90
31639;DHT22;18248;51.522;7.020;2024-03-23T00:57:09;9.60;99.90
31639;DHT22;18248;51.522;7.020;2024-03-23T01:00:08;9.60;99.90
31639;DHT22;18248;51.522;7.020;2024-03-23T01:03:08;9.50;99.90
31639;DHT22;18248;51.522;7.020;2024-03-23T01:06:07;9.40;99.90
31639;DHT22;18248;51.522;7.020;2024-03-23T01:09:05;9.40;99.90
31639;DHT22;18248;51.522;7.020;2024-03-23T01:12:05;9.40;99.90
31639;DHT22;18248;51.522;7.020;2024-03-23T01:15:04;9.40;99.90
31639;DHT22;18248;51.522;7.020;2024-03-23T01:18:02;9.40;99.90
31639;DHT22;18248;51.522;7.020;2024-03-23T01:21:01;9.40;99.90
31639;DHT22;18248;51.522;7.020;2024-03-23T01:23:59;9.40;99.90
31639;DHT22;18248;51.522;7.020;2024-03-23T01:26:58;9.30;99.90
31639;DHT22;18248;51.522;7.020;2024-03-23T01:29:56;9.20;99.90
31639;DHT22;18248;51.522;7.020;2024-03-23T01:32:55;9.20;99.90
31639;DHT22;18248;51.522;7.020;2024-03-23T01:35:53;9.10;99.90
31639;DHT22;18248;51.522;7.020;2024-03-23T01:38:52;9.10;99.90
31639;DHT22;18248;51.522;7.020;2024-03-23T01:41:51;9.10;99.90
31639;DHT22;18248;51.522;7.020;2024-03-23T01:44:49;9.10;99.90
31639;DHT22;18248;51.522;7.020;2024-03-23T01:47:51;9.00;99.90
31639;DHT22;18248;51.522;7.020;2024-03-23T01:50:51;9.10;99.90
31639;DHT22;18248;51.522;7.020;2024-03-23T01:53:49;9.00;99.90
31639;DHT22;18248;51.522;7.020;2024-03-23T01:56:48;8.90;99.90
31639;DHT22;18248;51.522;7.020;2024-03-23T01:59:48;8.80;99.90
31639;DHT22;18248;51.522;7.020;2024-03-23T02:02:47;8.80;99.90
31639;DHT22;18248;51.522;7.020;2024-03-23T02:05:46;8.70;99.90
31639;DHT22;18248;51.522;7.020;2024-03-23T02:08:44;8.70;99.90
31639;DHT22;18248;51.522;7.020;2024-03-23T02:11:43;8.80;99.90
31639;DHT22;18248;51.522;7.020;2024-03-23T02:14:41;8.80;99.90
31639;DHT22;18248;51.522;7.020;2024-03-23T02:17:40;8.80;99.90
31639;DHT22;18248;51.522;7.020;2024-03-23T02:20:39;8.80;99.90
31639;DHT22;18248;51.522;7.020;2024-03-23T02:23:37;8.80;99.90
31639;DHT22;18248;51.522;7.020;2024-03-23T02:26:36;8.80;99.90
31639;DHT22;18248;51.522;7.020;2024-03-23T02:29:34;8.80;99.90
31639;DHT22;18248;51.522;7.020;2024-03-23T02:32:33;8.80;99.90
31639;DHT22;18248;51.522;7.020;2024-03-23T02:35:31;8.80;99.90
31639;DHT22;18248;51.522;7.020;2024-03-23T02:38:30;8.80;99.90
31639;DHT22;18248;51.522;7.020;2024-03-23T02:41:28;8.90;99.90
31639;DHT22;18248;51.522;7.020;2024-03-23T02:44:27;8.90;99.90
31639;DHT22;18248;51.522;7.020;2024-03-23T02:47:25;8.90;99.90
31639;DHT22;18248;51.522;7.020;2024-03-23T02:50:24;8.80;99.90
31639;DHT22;18248;51.522;7.020;2024-03-23T02:53:23;8.80;99.90
31639;DHT22;18248;51.522;7.020;2024-03-23T02:56:21;8.80;99.90
31639;DHT22;18248;51.522;7.020;2024-03-23T02:59:20;8.80;99.90
31639;DHT22;18248;51.522;7.020;2024-03-23T03:02:18;8.70;99.90
31639;DHT22;18248;51.522;7.020;2024-03-23T03:05:17;8.80;99.90
31639;DHT22;18248;51.522;7.020;2024-03-23T03:08:16;8.80;99.90
31639;DHT22;18248;51.522;7.020;2024-03-23T03:11:14;8.80;99.90
31639;DHT22;18248;51.522;7.020;2024-03-23T03:14:13;8.70;99.90
31639;DHT22;18248;51.522;7.020;2024-03-23T03:17:11;8.70;99.90
31639;DHT22;18248;51.522;7.020;2024-03-23T03:20:10;8.70;99.90
31639;DHT22;18248;51.522;7.020;2024-03-23T03:23:11;8.70;99.90
31639;DHT22;18248;51.522;7.020;2024-03-23T03:26:10;8.70;99.90
31639;DHT22;18248;51.522;7.020;2024-03-23T03:29:08;8.60;99.90
31639;DHT22;18248;51.522;7.020;2024-03-23T03:32:07;8.60;99.90
31639;DHT22;18248;51.522;7.020;2024-03-23T03:35:06;8.60;99.90
31639;DHT22;18248;51.522;7.020;2024-03-23T03:38:04;8.50;99.90
31639;DHT22;18248;51.522;7.020;2024-03-23T03:41:03;8.50;99.90
31639;DHT22;18248;51.522;7.020;2024-03-23T03:44:01;8.50;99.90
31639;DHT22;18248;51.522;7.020;2024-03-23T03:47:00;8.50;99.90
31639;DHT22;18248;51.522;7.020;2024-03-23T03:49:59;8.50;99.90
31639;DHT22;18248;51.522;7.020;2024-03-23T03:52:57;8.50;99.90
31639;DHT22;18248;51.522;7.020;2024-03-23T03:55:56;8.50;99.90
31639;DHT22;18248;51.522;7.020;2024-03-23T03:58:55;8.40;99.90
31639;DHT22;18248;51.522;7.020;2024-03-23T04:01:54;8.40;99.90
31639;DHT22;18248;51.522;7.020;2024-03-23T04:04:52;8.30;99.90
31639;DHT22;18248;51.522;7.020;2024-03-23T04:07:51;8.40;99.90
31639;DHT22;18248;51.522;7.020;2024-03-23T04:10:50;8.30;99.90
31639;DHT22;18248;51.522;7.020;2024-03-23T04:13:48;8.40;99.90
31639;DHT22;18248;51.522;7.020;2024-03-23T04:16:47;8.30;99.90
31639;DHT22;18248;51.522;7.020;2024-03-23T04:19:45;8.30;99.90
31639;DHT22;18248;51.522;7.020;2024-03-23T04:22:44;8.30;99.90
31639;DHT22;18248;51.522;7.020;2024-03-23T04:25:43;8.20;99.90
31639;DHT22;18248;51.522;7.020;2024-03-23T04:28:42;8.20;99.90
31639;DHT22;18248;51.522;7.020;2024-03-23T04:31:41;8.20;99.90
31639;DHT22;18248;51.522;7.020;2024-03-23T04:34:39;8.20;99.90
31639;DHT22;18248;51.522;7.020;2024-03-23T04:37:39;8.10;99.90
31639;DHT22;18248;51.522;7.020;2024-03-23T04:40:40;8.10;99.90
31639;DHT22;18248;51.522;7.020;2024-03-23T04:43:39;8.10;99.90
31639;DHT22;18248;51.522;7.020;2024-03-23T04:46:38;8.10;99.90
31639;DHT22;18248;51.522;7.020;2024-03-23T04:49:37;8.10;99.90
31639;DHT22;18248;51.522;7.020;2024-03-23T04:52:35;8.10;99.90
31639;DHT22;18248;51.522;7.020;2024-03-23T04:55:34;8.10;99.90
31639;DHT22;18248;51.522;7.020;2024-03-23T04:58:32;8.10;99.90
31639;DHT22;18248;51.522;7.020;2024-03-23T05:01:31;8.10;99.90
31639;DHT22;18248;51.522;7.020;2024-03-23T05:04:30;8.00;99.90
31639;DHT22;18248;51.522;7.020;2024-03-23T05:07:30;8.10;99.90
31639;DHT22;18248;51.522;7.020;2024-03-23T05:10:29;8.00;99.90
31639;DHT22;18248;51.522;7.020;2024-03-23T05:13:27;8.00;99.90
31639;DHT22;18248;51.522;7.020;2024-03-23T05:16:26;8.10;99.90
31639;DHT22;18248;51.522;7.020;2024-03-23T05:19:25;8.00;99.90
31639;DHT22;18248;51.522;7.020;2024-03-23T05:22:23;8.10;99.90
31639;DHT22;18248;51.522;7.020;2024-03-23T05:25:22;8.10;99.90
31639;DHT22;18248;51.522;7.020;2024-03-23T05:28:21;8.10;99.90
31639;DHT22;18248;51.522;7.020;2024-03-23T05:31:27;8.10;99.90
31639;DHT22;18248;51.522;7.020;2024-03-23T05:34:26;8.00;99.90
31639;DHT22;18248;51.522;7.020;2024-03-23T05:37:24;8.00;99.90
31639;DHT22;18248;51.522;7.020;2024-03-23T05:40:25;8.00;99.90
31639;DHT22;18248;51.522;7.020;2024-03-23T05:43:24;8.00;99.90
31639;DHT22;18248;51.522;7.020;2024-03-23T05:46:23;8.00;99.90
31639;DHT22;18248;51.522;7.020;2024-03-23T05:49:21;8.00;99.90
31639;DHT22;18248;51.522;7.020;2024-03-23T05:52:20;8.10;99.90
31639;DHT22;18248;51.522;7.020;2024-03-23T05:55:19;8.10;99.90
31639;DHT22;18248;51.522;7.020;2024-03-23T05:58:18;8.10;99.90
31639;DHT22;18248;51.522;7.020;2024-03-23T06:01:19;8.10;99.90
31639;DHT22;18248;51.522;7.020;2024-03-23T06:04:18;8.10;99.90
31639;DHT22;18248;51.522;7.020;2024-03-23T06:07:16;8.10;99.90
31639;DHT22;18248;51.522;7.020;2024-03-23T06:10:15;8.10;99.90
31639;DHT22;18248;51.522;7.020;2024-03-23T06:13:14;8.10;99.90
31639;DHT22;18248;51.522;7.020;2024-03-23T06:16:12;8.10;99.90
31639;DHT22;18248;51.522;7.020;2024-03-23T06:19:11;8.10;99.90
31639;DHT22;18248;51.522;7.020;2024-03-23T06:22:09;8.10;99.90
31639;DHT22;18248;51.522;7.020;2024-03-23T06:25:08;8.10;99.90
31639;DHT22;18248;51.522;7.020;2024-03-23T06:28:07;8.10;99.90
31639;DHT22;18248;51.522;7.020;2024-03-23T06:31:09;8.10;99.90
31639;DHT22;18248;51.522;7.020;2024-03-23T06:34:08;8.10;99.90
31639;DHT22;18248;51.522;7.020;2024-03-23T06:37:06;8.10;99.90
31639;DHT22;18248;51.522;7.020;2024-03-23T06:40:05;8.10;99.90
31639;DHT22;18248;51.522;7.020;2024-03-23T06:43:07;8.20;99.90
31639;DHT22;18248;51.522;7.020;2024-03-23T06:46:07;8.20;99.90
31639;DHT22;18248;51.522;7.020;2024-03-23T06:49:05;8.20;99.90
31639;DHT22;18248;51.522;7.020;2024-03-23T06:52:05;8.20;99.90
31639;DHT22;18248;51.522;7.020;2024-03-23T06:55:03;8.30;99.90
31639;DHT22;18248;51.522;7.020;2024-03-23T06:58:04;8.30;99.90
31639;DHT22;18248;51.522;7.020;2024-03-23T07:01:02;8.30;99.90
31639;DHT22;18248;51.522;7.020;2024-03-23T07:04:01;8.30;99.90
31639;DHT22;18248;51.522;7.020;2024-03-23T07:06:59;8.30;99.90
31639;DHT22;18248;51.522;7.020;2024-03-23T07:09:59;8.40;99.90
31639;DHT22;18248;51.522;7.020;2024-03-23T07:12:58;8.40;99.90
31639;DHT22;18248;51.522;7.020;2024-03-23T07:15:56;8.40;99.90
31639;DHT22;18248;51.522;7.020;2024-03-23T07:18:56;8.40;99.90
31639;DHT22;18248;51.522;7.020;2024-03-23T07:21:55;8.50;99.90
31639;DHT22;18248;51.522;7.020;2024-03-23T07:24:53;8.50;99.90
31639;DHT22;18248;51.522;7.020;2024-03-23T07:27:53;8.60;99.90
31639;DHT22;18248;51.522;7.020;2024-03-23T07:31:05;8.60;99.90
31639;DHT22;18248;51.522;7.020;2024-03-23T07:34:04;8.70;99.90
31639;DHT22;18248;51.522;7.020;2024-03-23T07:37:02;8.70;99.90
31639;DHT22;18248;51.522;7.020;2024-03-23T07:40:01;8.80;99.90
31639;DHT22;18248;51.522;7.020;2024-03-23T07:42:59;8.90;99.90
31639;DHT22;18248;51.522;7.020;2024-03-23T07:45:58;9.00;99.90
31639;DHT22;18248;51.522;7.020;2024-03-23T07:48:57;9.10;99.90
31639;DHT22;18248;51.522;7.020;2024-03-23T07:51:56;9.10;99.90
31639;DHT22;18248;51.522;7.020;2024-03-23T07:54:54;9.20;99.90
31639;DHT22;18248;51.522;7.020;2024-03-23T07:57:53;9.20;99.90
31639;DHT22;18248;51.522;7.020;2024-03-23T08:00:55;9.20;99.90
31639;DHT22;18248;51.522;7.020;2024-03-23T08:03:54;9.20;99.90
31639;DHT22;18248;51.522;7.020;2024-03-23T08:06:52;9.30;99.90
31639;DHT22;18248;51.522;7.020;2024-03-23T08:09:51;9.40;99.90
31639;DHT22;18248;51.522;7.020;2024-03-23T08:12:49;9.50;99.90
31639;DHT22;18248;51.522;7.020;2024-03-23T08:15:48;9.60;99.90
31639;DHT22;18248;51.522;7.020;2024-03-23T08:18:47;9.70;99.90
31639;DHT22;18248;51.522;7.020;2024-03-23T08:21:45;9.90;99.90
31639;DHT22;18248;51.522;7.020;2024-03-23T08:24:44;9.90;99.90
31639;DHT22;18248;51.522;7.020;2024-03-23T08:27:44;10.00;99.90
31639;DHT22;18248;51.522;7.020;2024-03-23T08:30:43;10.00;99.90
31639;DHT22;18248;51.522;7.020;2024-03-23T08:33:41;10.00;99.90
31639;DHT22;18248;51.522;7.020;2024-03-23T08:36:43;9.90;99.90
31639;DHT22;18248;51.522;7.020;2024-03-23T08:39:43;9.90;99.90
31639;DHT22;18248;51.522;7.020;2024-03-23T08:42:42;9.90;99.90
31639;DHT22;18248;51.522;7.020;2024-03-23T08:45:40;9.90;99.90
31639;DHT22;18248;51.522;7.020;2024-03-23T08:48:44;9.90;99.90
31639;DHT22;18248;51.522;7.020;2024-03-23T08:51:43;9.80;99.90
31639;DHT22;18248;51.522;7.020;2024-03-23T08:54:42;9.80;99.90
31639;DHT22;18248;51.522;7.020;2024-03-23T08:57:40;9.90;99.90
31639;DHT22;18248;51.522;7.020;2024-03-23T09:00:39;9.80;99.90
31639;DHT22;18248;51.522;7.020;2024-03-23T09:03:37;9.80;99.90
31639;DHT22;18248;51.522;7.020;2024-03-23T09:06:36;9.70;99.90
31639;DHT22;18248;51.522;7.020;2024-03-23T09:09:35;9.80;99.90
31639;DHT22;18248;51.522;7.020;2024-03-23T09:12:35;9.80;99.90
31639;DHT22;18248;51.522;7.020;2024-03-23T09:15:36;9.90;99.90
31639;DHT22;18248;51.522;7.020;2024-03-23T09:18:36;10.00;99.90
31639;DHT22;18248;51.522;7.020;2024-03-23T09:21:35;10.10;99.90
31639;DHT22;18248;51.522;7.020;2024-03-23T09:24:33;10.20;99.90
31639;DHT22;18248;51.522;7.020;2024-03-23T09:27:32;10.40;99.90
31639;DHT22;18248;51.522;7.020;2024-03-23T09:30:32;10.50;99.90
31639;DHT22;18248;51.522;7.020;2024-03-23T09:33:31;10.50;99.90
31639;DHT22;18248;51.522;7.020;2024-03-23T09:36:30;10.50;99.90
31639;DHT22;18248;51.522;7.020;2024-03-23T09:39:29;10.40;99.90
31639;DHT22;18248;51.522;7.020;2024-03-23T09:42:28;10.30;99.90
31639;DHT22;18248;51.522;7.020;2024-03-23T09:45:28;10.30;99.90
31639;DHT22;18248;51.522;7.020;2024-03-23T09:48:27;10.40;99.90
31639;DHT22;18248;51.522;7.020;2024-03-23T09:51:25;10.50;99.90
31639;DHT22;18248;51.522;7.020;2024-03-23T09:54:24;10.50;99.90
31639;DHT22;18248;51.522;7.020;2024-03-23T09:57:23;10.60;99.90
31639;DHT22;18248;51.522;7.020;2024-03-23T10:00:21;10.70;99.90
31639;DHT22;18248;51.522;7.020;2024-03-23T10:03:20;10.70;99.90
31639;DHT22;18248;51.522;7.020;2024-03-23T10:06:21;10.50;99.90
31639;DHT22;18248;51.522;7.020;2024-03-23T10:09:20;10.60;99.90
31639;DHT22;18248;51.522;7.020;2024-03-23T10:12:20;10.80;99.90
31639;DHT22;18248;51.522;7.020;2024-03-23T10:15:25;10.90;99.90
31639;DHT22;18248;51.522;7.020;2024-03-23T10:18:24;11.10;99.90
31639;DHT22;18248;51.522;7.020;2024-03-23T10:21:23;11.20;99.90
31639;DHT22;18248;51.522;7.020;2024-03-23T10:24:22;11.10;99.90
31639;DHT22;18248;51.522;7.020;2024-03-23T10:27:22;11.10;99.90
31639;DHT22;18248;51.522;7.020;2024-03-23T10:30:21;10.90;99.90
31639;DHT22;18248;51.522;7.020;2024-03-23T10:33:25;10.80;99.90
31639;DHT22;18248;51.522;7.020;2024-03-23T10:36:25;10.70;99.90
31639;DHT22;18248;51.522;7.020;2024-03-23T10:39:26;10.60;99.90
31639;DHT22;18248;51.522;7.020;2024-03-23T10:42:25;10.80;99.90
31639;DHT22;18248;51.522;7.020;2024-03-23T10:45:23;11.00;99.90
31639;DHT22;18248;51.522;7.020;2024-03-23T10:48:23;11.00;99.90
31639;DHT22;18248;51.522;7.020;2024-03-23T10:51:21;11.00;99.90
31639;DHT22;18248;51.522;7.020;2024-03-23T10:54:20;11.10;99.90
31639;DHT22;18248;51.522;7.020;2024-03-23T10:57:23;11.10;99.90
31639;DHT22;18248;51.522;7.020;2024-03-23T11:00:25;10.80;99.90
31639;DHT22;18248;51.522;7.020;2024-03-23T11:03:34;10.50;99.90
31639;DHT22;18248;51.522;7.020;2024-03-23T11:09:40;10.00;99.90
31639;DHT22;18248;51.522;7.020;2024-03-23T11:12:40;9.90;99.90
31639;DHT22;18248;51.522;7.020;2024-03-23T11:15:38;10.00;99.90
31639;DHT22;18248;51.522;7.020;2024-03-23T11:18:37;9.90;99.90
31639;DHT22;18248;51.522;7.020;2024-03-23T11:22:08;9.90;99.90
31639;DHT22;18248;51.522;7.020;2024-03-23T11:25:20;10.30;99.90
31639;DHT22;18248;51.522;7.020;2024-03-23T11:28:19;10.60;99.90
31639;DHT22;18248;51.522;7.020;2024-03-23T11:31:17;10.70;99.90
31639;DHT22;18248;51.522;7.020;2024-03-23T11:34:16;10.80;99.90
31639;DHT22;18248;51.522;7.020;2024-03-23T11:37:15;10.90;99.90
31639;DHT22;18248;51.522;7.020;2024-03-23T11:40:17;11.10;99.90
31639;DHT22;18248;51.522;7.020;2024-03-23T11:43:20;11.40;99.90
31639;DHT22;18248;51.522;7.020;2024-03-23T11:46:23;11.60;99.90
31639;DHT22;18248;51.522;7.020;2024-03-23T11:49:22;11.80;99.90
31639;DHT22;18248;51.522;7.020;2024-03-23T11:52:20;11.90;99.90
31639;DHT22;18248;51.522;7.020;2024-03-23T11:55:19;12.00;99.90
31639;DHT22;18248;51.522;7.020;2024-03-23T11:58:19;12.00;99.90
31639;DHT22;18248;51.522;7.020;2024-03-23T12:01:18;12.10;99.90
31639;DHT22;18248;51.522;7.020;2024-03-23T12:04:28;12.30;99.90
31639;DHT22;18248;51.522;7.020;2024-03-23T12:07:27;12.40;99.90
31639;DHT22;18248;51.522;7.020;2024-03-23T12:10:26;12.60;99.90
31639;DHT22;18248;51.522;7.020;2024-03-23T12:13:24;12.60;99.90
31639;DHT22;18248;51.522;7.020;2024-03-23T12:16:24;12.50;99.90
31639;DHT22;18248;51.522;7.020;2024-03-23T12:19:25;12.40;99.90
31639;DHT22;18248;51.522;7.020;2024-03-23T12:22:24;12.30;99.90
31639;DHT22;18248;51.522;7.020;2024-03-23T12:25:23;12.10;99.90
31639;DHT22;18248;51.522;7.020;2024-03-23T12:28:21;11.80;99.90
31639;DHT22;18248;51.522;7.020;2024-03-23T12:31:20;11.70;99.90
31639;DHT22;18248;51.522;7.020;2024-03-23T12:34:18;11.90;99.90
31639;DHT22;18248;51.522;7.020;2024-03-23T12:37:18;12.20;99.90
31639;DHT22;18248;51.522;7.020;2024-03-23T12:40:17;12.50;99.90
31639;DHT22;18248;51.522;7.020;2024-03-23T12:43:17;12.50;99.90
31639;DHT22;18248;51.522;7.020;2024-03-23T12:46:15;12.50;99.90
31639;DHT22;18248;51.522;7.020;2024-03-23T12:49:14;12.60;99.90
31639;DHT22;18248;51.522;7.020;2024-03-23T12:52:12;12.40;99.90
31639;DHT22;18248;51.522;7.020;2024-03-23T12:55:11;12.40;99.90
31639;DHT22;18248;51.522;7.020;2024-03-23T12:58:09;12.40;99.90
31639;DHT22;18248;51.522;7.020;2024-03-23T13:01:08;12.40;99.90
31639;DHT22;18248;51.522;7.020;2024-03-23T13:04:07;12.50;99.90
31639;DHT22;18248;51.522;7.020;2024-03-23T13:07:05;12.40;99.90
31639;DHT22;18248;51.522;7.020;2024-03-23T13:10:06;12.10;99.90
31639;DHT22;18248;51.522;7.020;2024-03-23T13:13:04;11.60;99.90
31639;DHT22;18248;51.522;7.020;2024-03-23T13:16:04;11.30;99.90
31639;DHT22;18248;51.522;7.020;2024-03-23T13:19:03;11.10;99.90
31639;DHT22;18248;51.522;7.020;2024-03-23T13:22:02;11.00;99.90
31639;DHT22;18248;51.522;7.020;2024-03-23T13:25:01;10.90;99.90
31639;DHT22;18248;51.522;7.020;2024-03-23T13:28:00;10.90;99.90
31639;DHT22;18248;51.522;7.020;2024-03-23T13:30:59;10.90;99.90
31639;DHT22;18248;51.522;7.020;2024-03-23T13:34:01;10.90;99.90
31639;DHT22;18248;51.522;7.020;2024-03-23T13:37:01;10.70;99.90
31639;DHT22;18248;51.522;7.020;2024-03-23T13:39:59;10.60;99.90
31639;DHT22;18248;51.522;7.020;2024-03-23T13:42:59;10.50;99.90
31639;DHT22;18248;51.522;7.020;2024-03-23T13:45:58;10.20;99.90
31639;DHT22;18248;51.522;7.020;2024-03-23T13:49:00;9.90;99.90
31639;DHT22;18248;51.522;7.020;2024-03-23T13:51:59;9.60;99.90
31639;DHT22;18248;51.522;7.020;2024-03-23T13:54:58;9.50;99.90
31639;DHT22;18248;51.522;7.020;2024-03-23T13:57:57;9.60;99.90
31639;DHT22;18248;51.522;7.020;2024-03-23T14:00:59;9.70;99.90
31639;DHT22;18248;51.522;7.020;2024-03-23T14:03:57;9.80;99.90
31639;DHT22;18248;51.522;7.020;2024-03-23T14:06:56;9.70;99.90
31639;DHT22;18248;51.522;7.020;2024-03-23T14:09:54;9.90;99.90
31639;DHT22;18248;51.522;7.020;2024-03-23T14:12:53;10.20;99.90
31639;DHT22;18248;51.522;7.020;2024-03-23T14:15:55;10.50;99.90
31639;DHT22;18248;51.522;7.020;2024-03-23T14:18:54;10.80;99.90
31639;DHT22;18248;51.522;7.020;2024-03-23T14:21:52;10.90;99.90
31639;DHT22;18248;51.522;7.020;2024-03-23T14:24:51;11.10;99.90
31639;DHT22;18248;51.522;7.020;2024-03-23T14:27:49;11.10;99.90
31639;DHT22;18248;51.522;7.020;2024-03-23T14:30:51;11.10;99.90
31639;DHT22;18248;51.522;7.020;2024-03-23T14:33:50;11.20;99.90
31639;DHT22;18248;51.522;7.020;2024-03-23T14:36:48;11.20;99.90
31639;DHT22;18248;51.522;7.020;2024-03-23T14:39:47;11.30;99.90
31639;DHT22;18248;51.522;7.020;2024-03-23T14:42:45;11.20;99.90
31639;DHT22;18248;51.522;7.020;2024-03-23T14:46:16;11.00;99.90
31639;DHT22;18248;51.522;7.020;2024-03-23T14:49:15;11.00;99.90
31639;DHT22;18248;51.522;7.020;2024-03-23T14:52:20;11.10;99.90
31639;DHT22;18248;51.522;7.020;2024-03-23T14:55:18;11.20;99.90
31639;DHT22;18248;51.522;7.020;2024-03-23T14:58:17;11.10;99.90
31639;DHT22;18248;51.522;7.020;2024-03-23T15:01:16;11.20;99.90
31639;DHT22;18248;51.522;7.020;2024-03-23T15:04:14;11.20;99.90
31639;DHT22;18248;51.522;7.020;2024-03-23T15:07:13;11.30;99.90
31639;DHT22;18248;51.522;7.020;2024-03-23T15:10:12;11.20;99.90
31639;DHT22;18248;51.522;7.020;2024-03-23T15:13:11;11.20;99.90
31639;DHT22;18248;51.522;7.020;2024-03-23T15:16:09;11.10;99.90
31639;DHT22;18248;51.522;7.020;2024-03-23T15:19:08;10.90;99.90
31639;DHT22;18248;51.522;7.020;2024-03-23T15:22:07;10.90;99.90
31639;DHT22;18248;51.522;7.020;2024-03-23T15:25:07;10.80;99.90
31639;DHT22;18248;51.522;7.020;2024-03-23T15:28:06;10.80;99.90
31639;DHT22;18248;51.522;7.020;2024-03-23T15:31:05;10.80;99.90
31639;DHT22;18248;51.522;7.020;2024-03-23T15:34:04;10.80;99.90
31639;DHT22;18248;51.522;7.020;2024-03-23T15:37:03;10.90;99.90
31639;DHT22;18248;51.522;7.020;2024-03-23T15:40:02;10.90;99.90
31639;DHT22;18248;51.522;7.020;2024-03-23T15:43:02;10.90;99.90
31639;DHT22;18248;51.522;7.020;2024-03-23T15:46:02;10.90;99.90
31639;DHT22;18248;51.522;7.020;2024-03-23T15:49:00;10.80;99.90
31639;DHT22;18248;51.522;7.020;2024-03-23T15:51:59;10.90;99.90
31639;DHT22;18248;51.522;7.020;2024-03-23T15:54:58;11.00;99.90
31639;DHT22;18248;51.522;7.020;2024-03-23T15:57:58;11.00;99.90
31639;DHT22;18248;51.522;7.020;2024-03-23T16:03:59;10.90;99.90
31639;DHT22;18248;51.522;7.020;2024-03-23T16:06:58;10.80;99.90
31639;DHT22;18248;51.522;7.020;2024-03-23T16:09:57;10.70;99.90
31639;DHT22;18248;51.522;7.020;2024-03-23T16:13:02;10.60;99.90
31639;DHT22;18248;51.522;7.020;2024-03-23T16:16:02;10.50;99.90
31639;DHT22;18248;51.522;7.020;2024-03-23T16:19:02;10.40;99.90
31639;DHT22;18248;51.522;7.020;2024-03-23T16:22:00;10.30;99.90
31639;DHT22;18248;51.522;7.020;2024-03-23T16:24:59;10.30;99.90
31639;DHT22;18248;51.522;7.020;2024-03-23T16:27:57;10.30;99.90
31639;DHT22;18248;51.522;7.020;2024-03-23T16:30:57;10.30;99.90
31639;DHT22;18248;51.522;7.020;2024-03-23T16:33:56;10.20;99.90
31639;DHT22;18248;51.522;7.020;2024-03-23T16:36:54;10.20;99.90
31639;DHT22;18248;51.522;7.020;2024-03-23T16:39:53;10.30;99.90
31639;DHT22;18248;51.522;7.020;2024-03-23T16:42:51;10.20;99.90
31639;DHT22;18248;51.522;7.020;2024-03-23T16:45:56;10.10;99.90
31639;DHT22;18248;51.522;7.020;2024-03-23T16:48:55;10.00;99.90
31639;DHT22;18248;51.522;7.020;2024-03-23T16:51:54;10.00;99.90
31639;DHT22;18248;51.522;7.020;2024-03-23T16:54:53;9.80;99.90
31639;DHT22;18248;51.522;7.020;2024-03-23T16:57:51;9.80;99.90
31639;DHT22;18248;51.522;7.020;2024-03-23T17:00:50;9.70;99.90
31639;DHT22;18248;51.522;7.020;2024-03-23T17:03:50;9.60;99.90
31639;DHT22;18248;51.522;7.020;2024-03-23T17:06:49;9.30;99.90
31639;DHT22;18248;51.522;7.020;2024-03-23T17:09:48;9.20;99.90
31639;DHT22;18248;51.522;7.020;2024-03-23T17:12:47;9.00;99.90
31639;DHT22;18248;51.522;7.020;2024-03-23T17:15:46;8.80;99.90
31639;DHT22;18248;51.522;7.020;2024-03-23T17:18:45;8.60;99.90
31639;DHT22;18248;51.522;7.020;2024-03-23T17:21:43;8.40;99.90
31639;DHT22;18248;51.522;7.020;2024-03-23T17:24:42;8.20;99.90
31639;DHT22;18248;51.522;7.020;2024-03-23T17:27:41;8.20;99.90
31639;DHT22;18248;51.522;7.020;2024-03-23T17:30:39;8.20;99.90
31639;DHT22;18248;51.522;7.020;2024-03-23T17:33:38;8.10;99.90
31639;DHT22;18248;51.522;7.020;2024-03-23T17:36:36;8.10;99.90
31639;DHT22;18248;51.522;7.020;2024-03-23T17:39:36;8.20;99.90
31639;DHT22;18248;51.522;7.020;2024-03-23T17:42:36;8.30;99.90
31639;DHT22;18248;51.522;7.020;2024-03-23T17:45:34;8.20;99.90
31639;DHT22;18248;51.522;7.020;2024-03-23T17:48:34;8.20;99.90
31639;DHT22;18248;51.522;7.020;2024-03-23T17:51:33;8.10;99.90
31639;DHT22;18248;51.522;7.020;2024-03-23T17:54:33;8.10;99.90
31639;DHT22;18248;51.522;7.020;2024-03-23T17:57:31;8.00;99.90
31639;DHT22;18248;51.522;7.020;2024-03-23T18:00:30;7.90;99.90
31639;DHT22;18248;51.522;7.020;2024-03-23T18:03:29;7.90;99.90
31639;DHT22;18248;51.522;7.020;2024-03-23T18:06:27;7.80;99.90
31639;DHT22;18248;51.522;7.020;2024-03-23T18:09:26;7.80;99.90
31639;DHT22;18248;51.522;7.020;2024-03-23T18:12:24;7.70;99.90
31639;DHT22;18248;51.522;7.020;2024-03-23T18:15:23;7.70;99.90
31639;DHT22;18248;51.522;7.020;2024-03-23T18:18:21;7.70;99.90
31639;DHT22;18248;51.522;7.020;2024-03-23T18:21:20;7.60;99.90
31639;DHT22;18248;51.522;7.020;2024-03-23T18:24:19;7.60;99.90
31639;DHT22;18248;51.522;7.020;2024-03-23T18:27:17;7.60;99.90
31639;DHT22;18248;51.522;7.020;2024-03-23T18:30:16;7.60;99.90
31639;DHT22;18248;51.522;7.020;2024-03-23T18:33:15;7.50;99.90
31639;DHT22;18248;51.522;7.020;2024-03-23T18:36:13;7.40;99.90
31639;DHT22;18248;51.522;7.020;2024-03-23T18:39:12;7.40;99.90
31639;DHT22;18248;51.522;7.020;2024-03-23T18:42:11;7.30;99.90
31639;DHT22;18248;51.522;7.020;2024-03-23T18:45:09;7.30;99.90
31639;DHT22;18248;51.522;7.020;2024-03-23T18:48:08;7.20;99.90
31639;DHT22;18248;51.522;7.020;2024-03-23T18:51:06;7.20;99.90
31639;DHT22;18248;51.522;7.020;2024-03-23T18:54:05;7.20;99.90
31639;DHT22;18248;51.522;7.020;2024-03-23T18:57:04;7.10;99.90
31639;DHT22;18248;51.522;7.020;2024-03-23T19:00:02;7.10;99.90
31639;DHT22;18248;51.522;7.020;2024-03-23T19:03:01;7.10;99.90
31639;DHT22;18248;51.522;7.020;2024-03-23T19:06:02;7.10;99.90
31639;DHT22;18248;51.522;7.020;2024-03-23T19:09:01;7.00;99.90
31639;DHT22;18248;51.522;7.020;2024-03-23T19:11:59;7.00;99.90
31639;DHT22;18248;51.522;7.020;2024-03-23T19:14:58;7.00;99.90
31639;DHT22;18248;51.522;7.020;2024-03-23T19:17:56;6.90;99.90
31639;DHT22;18248;51.522;7.020;2024-03-23T19:20:56;6.90;99.90
31639;DHT22;18248;51.522;7.020;2024-03-23T19:23:55;6.90;99.90
31639;DHT22;18248;51.522;7.020;2024-03-23T19:26:54;6.90;99.90
31639;DHT22;18248;51.522;7.020;2024-03-23T19:29:52;6.90;99.90
31639;DHT22;18248;51.522;7.020;2024-03-23T19:32:51;6.90;99.90
31639;DHT22;18248;51.522;7.020;2024-03-23T19:35:55;7.00;99.90
31639;DHT22;18248;51.522;7.020;2024-03-23T19:38:54;7.10;99.90
31639;DHT22;18248;51.522;7.020;2024-03-23T19:41:53;7.00;99.90
31639;DHT22;18248;51.522;7.020;2024-03-23T19:44:52;7.10;99.90
31639;DHT22;18248;51.522;7.020;2024-03-23T19:47:50;7.10;99.90
31639;DHT22;18248;51.522;7.020;2024-03-23T19:50:59;7.10;99.90
31639;DHT22;18248;51.522;7.020;2024-03-23T19:53:58;7.20;99.90
31639;DHT22;18248;51.522;7.020;2024-03-23T19:56:56;7.10;99.90
31639;DHT22;18248;51.522;7.020;2024-03-23T19:59:55;7.10;99.90
31639;DHT22;18248;51.522;7.020;2024-03-23T20:02:54;7.10;99.90